createdAt,value
2023-06-08T00:00:14.933Z,286.77
2023-06-08T00:02:42.002Z,138.07
2023-06-08T00:05:10.117Z,50.28
2023-06-08T00:07:38.151Z,86.85
2023-06-08T00:10:05.771Z,53.33
2023-06-08T00:12:33.180Z,6.50
2023-06-08T00:14:59.987Z,6.65
2023-06-08T00:17:26.842Z,6.00
2023-06-08T00:19:58.117Z,4.25
2023-06-08T00:22:24.881Z,5.43
2023-06-08T00:24:51.723Z,5.32
2023-06-08T00:27:18.350Z,5.25
2023-06-08T00:29:44.998Z,4.13
2023-06-08T00:32:12.183Z,4.40
2023-06-08T00:34:38.864Z,3.50
2023-06-08T00:37:05.505Z,34.72
2023-06-08T00:39:32.158Z,259.38
2023-06-08T00:41:58.873Z,327.52
2023-06-08T00:44:25.522Z,242.05
2023-06-08T00:46:53.044Z,270.48
2023-06-08T00:49:19.973Z,179.65
2023-06-08T00:51:47.540Z,28.10
2023-06-08T00:54:16.109Z,162.55
2023-06-08T00:56:43.604Z,51.72
2023-06-08T00:59:13.135Z,7.80
2023-06-08T01:01:40.214Z,9.18
2023-06-08T01:04:07.760Z,5.30
2023-06-08T01:06:39.011Z,4.03
2023-06-08T01:09:16.731Z,4.65
2023-06-08T01:11:55.041Z,4.25
2023-06-08T01:14:39.602Z,3.38
2023-06-08T01:17:13.830Z,6.43
2023-06-08T01:19:58.531Z,8.93
2023-06-08T01:22:34.358Z,3.78
2023-06-08T01:25:01.527Z,6.72
2023-06-08T01:27:33.385Z,3.25
2023-06-08T01:30:00.040Z,3.30
2023-06-08T01:32:26.829Z,3.70
2023-06-08T01:34:53.588Z,3.75
2023-06-08T01:37:30.436Z,7.03
2023-06-08T01:40:04.739Z,3.22
2023-06-08T01:42:33.948Z,4.30
2023-06-08T01:45:07.645Z,3.75
2023-06-08T01:47:43.477Z,4.65
2023-06-08T01:50:12.199Z,3.50
2023-06-08T01:52:42.430Z,3.05
2023-06-08T01:55:17.249Z,3.20
2023-06-08T02:00:12.792Z,3.30
2023-06-08T02:02:39.756Z,3.40
2023-06-08T02:05:10.699Z,3.40
2023-06-08T02:07:41.111Z,3.10
2023-06-08T02:10:09.526Z,12.30
2023-06-08T02:12:36.614Z,3.72
2023-06-08T02:15:03.351Z,3.35
2023-06-08T02:17:34.733Z,3.05
2023-06-08T02:20:07.306Z,3.30
2023-06-08T02:22:36.668Z,3.53
2023-06-08T02:25:09.535Z,3.70
2023-06-08T02:27:38.081Z,4.85
2023-06-08T02:30:07.958Z,3.00
2023-06-08T02:32:35.167Z,3.67
2023-06-08T02:35:03.145Z,4.43
2023-06-08T02:37:29.799Z,5.22
2023-06-08T02:39:56.521Z,3.95
2023-06-08T02:42:23.514Z,3.60
2023-06-08T02:44:50.135Z,3.22
2023-06-08T02:47:18.173Z,3.08
2023-06-08T02:49:45.036Z,7.38
2023-06-08T02:52:11.717Z,3.22
2023-06-08T02:54:38.326Z,3.70
2023-06-08T02:57:05.219Z,3.63
2023-06-08T02:59:32.608Z,3.30
2023-06-08T03:01:59.723Z,3.42
2023-06-08T03:04:29.205Z,3.80
2023-06-08T03:06:56.242Z,6.75
2023-06-08T03:09:29.609Z,3.28
2023-06-08T03:11:57.271Z,3.50
2023-06-08T03:14:30.009Z,4.72
2023-06-08T03:17:03.954Z,3.53
2023-06-08T03:19:31.771Z,4.33
2023-06-08T03:22:03.350Z,13.27
2023-06-08T03:24:32.298Z,3.72
2023-06-08T03:27:02.160Z,3.42
2023-06-08T03:29:29.808Z,10.13
2023-06-08T03:31:57.305Z,3.97
2023-06-08T03:34:26.796Z,3.33
2023-06-08T03:36:56.917Z,3.53
2023-06-08T03:39:23.829Z,4.88
2023-06-08T03:41:50.842Z,4.82
2023-06-08T03:44:17.704Z,3.63
2023-06-08T03:46:44.811Z,4.10
2023-06-08T03:49:11.450Z,4.05
2023-06-08T03:51:38.511Z,3.42
2023-06-08T03:54:05.710Z,3.70
2023-06-08T03:56:32.640Z,3.33
2023-06-08T03:58:59.817Z,3.45
2023-06-08T04:01:28.363Z,3.95
2023-06-08T04:03:55.240Z,3.83
2023-06-08T04:06:22.048Z,3.53
2023-06-08T04:08:48.695Z,5.95
2023-06-08T04:11:15.535Z,3.40
2023-06-08T04:13:42.489Z,3.03
2023-06-08T04:16:11.234Z,6.28
2023-06-08T04:18:40.669Z,3.72
2023-06-08T04:21:08.268Z,3.60
2023-06-08T04:23:36.814Z,3.17
2023-06-08T04:26:07.728Z,4.30
2023-06-08T04:28:35.269Z,4.35
2023-06-08T04:31:02.474Z,3.38
2023-06-08T04:33:29.440Z,3.10
2023-06-08T04:35:56.437Z,3.65
2023-06-08T04:38:23.453Z,3.65
2023-06-08T04:40:55.127Z,5.97
2023-06-08T04:43:22.894Z,3.10
2023-06-08T04:46:02.052Z,4.68
2023-06-08T04:48:29.645Z,3.42
2023-06-08T04:51:01.274Z,3.85
2023-06-08T04:53:28.403Z,4.50
2023-06-08T04:55:59.029Z,8.02
2023-06-08T04:58:29.514Z,3.85
2023-06-08T05:00:57.425Z,4.78
2023-06-08T05:03:25.081Z,3.80
2023-06-08T05:05:52.184Z,3.53
2023-06-08T05:08:19.119Z,3.90
2023-06-08T05:10:45.933Z,3.50
2023-06-08T05:13:12.660Z,4.78
2023-06-08T05:15:39.308Z,3.67
2023-06-08T05:18:06.298Z,5.10
2023-06-08T05:20:33.203Z,3.42
2023-06-08T05:22:59.926Z,3.72
2023-06-08T05:25:32.986Z,4.07
2023-06-08T05:27:59.582Z,3.38
2023-06-08T05:30:26.958Z,4.07
2023-06-08T05:32:53.814Z,9.70
2023-06-08T05:35:20.819Z,5.20
2023-06-08T05:37:47.464Z,3.70
2023-06-08T05:40:14.161Z,4.25
2023-06-08T05:42:40.846Z,3.42
2023-06-08T05:45:07.944Z,3.63
2023-06-08T05:47:35.433Z,6.30
2023-06-08T05:50:02.836Z,6.70
2023-06-08T05:52:29.569Z,9.32
2023-06-08T05:54:56.238Z,4.53
2023-06-08T05:57:23.091Z,5.85
2023-06-08T05:59:49.733Z,4.47
2023-06-08T06:02:16.538Z,4.32
2023-06-08T06:04:43.969Z,3.97
2023-06-08T06:07:10.762Z,5.28
2023-06-08T06:09:37.488Z,5.95
2023-06-08T06:12:04.672Z,5.15
2023-06-08T06:14:39.565Z,6.43
2023-06-08T06:17:08.459Z,4.40
2023-06-08T06:19:39.703Z,6.95
2023-06-08T06:22:12.592Z,6.10
2023-06-08T06:24:39.782Z,5.25
2023-06-08T06:27:07.410Z,3.65
2023-06-08T06:29:34.785Z,4.40
2023-06-08T06:32:01.499Z,4.63
2023-06-08T06:34:28.262Z,3.80
2023-06-08T06:36:54.953Z,3.92
2023-06-08T06:39:21.627Z,4.28
2023-06-08T06:41:49.105Z,4.40
2023-06-08T06:44:15.826Z,4.18
2023-06-08T06:46:42.846Z,4.00
2023-06-08T06:49:09.668Z,5.00
2023-06-08T06:51:37.609Z,10.00
2023-06-08T06:54:04.447Z,4.40
2023-06-08T06:56:32.125Z,4.63
2023-06-08T06:58:58.860Z,5.72
2023-06-08T07:01:25.605Z,4.55
2023-06-08T07:03:53.499Z,6.13
2023-06-08T07:06:25.711Z,5.95
2023-06-08T07:08:52.678Z,4.35
2023-06-08T07:11:19.381Z,4.82
2023-06-08T07:13:46.069Z,4.78
2023-06-08T07:16:12.905Z,3.80
2023-06-08T07:18:39.940Z,4.57
2023-06-08T07:21:06.845Z,4.63
2023-06-08T07:23:51.728Z,4.40
2023-06-08T07:26:28.904Z,4.78
2023-06-08T07:29:02.289Z,4.65
2023-06-08T07:31:29.447Z,4.70
2023-06-08T07:33:57.489Z,4.75
2023-06-08T07:36:24.412Z,51.95
2023-06-08T07:38:53.849Z,22.58
2023-06-08T07:41:20.643Z,13.10
2023-06-08T07:43:47.733Z,9.35
2023-06-08T07:46:14.802Z,5.90
2023-06-08T07:48:41.529Z,9.85
2023-06-08T07:51:08.370Z,5.50
2023-06-08T07:53:39.290Z,4.55
2023-06-08T07:56:06.448Z,4.32
2023-06-08T07:58:33.980Z,4.60
2023-06-08T08:01:02.087Z,4.40
2023-06-08T08:03:30.195Z,3.97
2023-06-08T08:05:57.701Z,4.57
2023-06-08T08:08:24.517Z,4.72
2023-06-08T08:10:51.437Z,5.18
2023-06-08T08:13:19.022Z,5.93
2023-06-08T08:15:46.926Z,4.43
2023-06-08T08:18:17.206Z,5.72
2023-06-08T08:20:43.983Z,4.60
2023-06-08T08:23:11.412Z,4.15
2023-06-08T08:25:38.185Z,4.50
2023-06-08T08:28:05.150Z,4.38
2023-06-08T08:30:32.560Z,4.32
2023-06-08T08:32:59.447Z,4.70
2023-06-08T08:35:30.440Z,3.83
2023-06-08T08:37:57.688Z,4.10
2023-06-08T08:40:24.636Z,4.22
2023-06-08T08:43:02.185Z,4.20
2023-06-08T08:45:32.819Z,4.10
2023-06-08T08:48:02.538Z,5.50
2023-06-08T08:50:35.435Z,11.80
2023-06-08T08:53:03.294Z,4.60
2023-06-08T08:55:35.041Z,4.32
2023-06-08T08:58:03.213Z,4.30
2023-06-08T09:00:32.652Z,4.45
2023-06-08T09:03:01.662Z,5.13
2023-06-08T09:05:28.560Z,4.57
2023-06-08T09:07:56.617Z,4.40
2023-06-08T09:10:26.836Z,4.50
2023-06-08T09:12:58.516Z,3.80
2023-06-08T09:15:34.991Z,4.35
2023-06-08T09:18:15.308Z,4.00
2023-06-08T09:20:42.041Z,4.65
2023-06-08T09:23:24.368Z,5.00
2023-06-08T09:25:52.318Z,4.00
2023-06-08T09:28:27.415Z,4.75
2023-06-08T09:30:58.906Z,4.18
2023-06-08T09:33:30.793Z,6.10
2023-06-08T09:35:57.705Z,5.03
2023-06-08T09:38:28.403Z,4.63
2023-06-08T09:41:25.000Z,4.85
2023-06-08T09:43:52.322Z,4.95
2023-06-08T09:46:40.123Z,4.75
2023-06-08T09:49:08.511Z,4.40
2023-06-08T09:51:37.484Z,4.45
2023-06-08T09:58:29.006Z,5.13
2023-06-08T10:04:57.610Z,6.45
2023-06-08T10:11:06.753Z,5.10
2023-06-08T10:17:27.255Z,4.28
2023-06-08T10:23:49.154Z,4.60
2023-06-08T10:30:09.569Z,5.05
2023-06-08T10:36:22.009Z,4.40
2023-06-08T10:42:30.944Z,4.72
2023-06-08T10:49:02.929Z,4.88
2023-06-08T10:59:56.805Z,3.75
2023-06-08T11:06:17.792Z,13.18
2023-06-08T11:12:26.414Z,3.05
2023-06-08T11:18:36.712Z,7.30
2023-06-08T11:24:54.876Z,3.47
2023-06-08T11:31:15.016Z,2.90
2023-06-08T11:37:37.873Z,2.67
2023-06-08T11:43:51.126Z,3.20
2023-06-08T11:50:16.161Z,3.67
2023-06-08T12:01:40.012Z,3.40
2023-06-08T12:08:07.462Z,3.40
2023-06-08T12:14:17.653Z,5.40
2023-06-08T12:20:32.539Z,3.05
2023-06-08T12:26:51.358Z,3.60
2023-06-08T12:33:14.048Z,25.77
2023-06-08T12:39:32.602Z,25.25
2023-06-08T12:45:41.404Z,11.00
2023-06-08T12:51:59.479Z,3.30
2023-06-08T13:02:50.974Z,3.40
2023-06-08T13:09:15.950Z,4.35
2023-06-08T13:15:27.990Z,3.15
2023-06-08T13:22:30.807Z,3.13
2023-06-08T13:28:49.996Z,3.60
2023-06-08T13:35:11.841Z,4.00
2023-06-08T13:41:26.039Z,3.75
2023-06-08T13:47:45.471Z,3.22
2023-06-08T13:54:04.831Z,18.88
2023-06-08T14:05:21.833Z,7.07
2023-06-08T14:11:30.528Z,2.80
2023-06-08T14:24:13.604Z,2.67
2023-06-08T14:26:40.420Z,2.90
2023-06-08T14:29:07.039Z,4.25
2023-06-08T14:31:33.750Z,2.72
2023-06-08T14:34:00.544Z,2.58
2023-06-08T14:36:27.475Z,2.45
2023-06-08T14:38:54.078Z,2.90
2023-06-08T14:41:21.874Z,2.50
2023-06-08T14:43:52.254Z,2.65
2023-06-08T14:46:20.133Z,3.60
2023-06-08T14:48:46.954Z,2.65
2023-06-08T14:51:32.312Z,2.92
2023-06-08T14:54:01.902Z,3.42
2023-06-08T14:56:28.569Z,3.55
2023-06-08T14:58:55.343Z,3.75
2023-06-08T15:01:22.061Z,9.13
2023-06-08T15:03:48.897Z,3.75
2023-06-08T15:06:15.597Z,15.73
2023-06-08T15:08:42.217Z,6.63
2023-06-08T15:11:08.827Z,3.35
2023-06-08T15:13:35.451Z,3.50
2023-06-08T15:16:02.500Z,4.38
2023-06-08T15:18:32.092Z,3.67
2023-06-08T15:20:59.207Z,3.55
2023-06-08T15:23:25.883Z,3.88
2023-06-08T15:25:52.581Z,3.70
2023-06-08T15:28:19.538Z,4.30
2023-06-08T15:30:46.181Z,4.03
2023-06-08T15:33:12.829Z,3.92
2023-06-08T15:35:39.605Z,4.88
2023-06-08T15:38:06.303Z,4.82
2023-06-08T15:40:33.023Z,4.18
2023-06-08T15:42:59.615Z,4.38
2023-06-08T15:45:26.223Z,4.13
2023-06-08T15:47:53.577Z,4.20
2023-06-08T15:50:20.345Z,4.38
2023-06-08T15:52:47.039Z,3.83
2023-06-08T15:55:13.831Z,13.20
2023-06-08T15:57:40.454Z,3.60
2023-06-08T16:00:09.030Z,5.03
2023-06-08T16:02:37.676Z,10.30
2023-06-08T16:07:33.178Z,9.98
2023-06-08T16:10:02.329Z,4.18
2023-06-08T16:12:28.980Z,4.47
2023-06-08T16:14:57.300Z,3.60
2023-06-08T16:17:23.921Z,8.38
2023-06-08T16:19:50.685Z,10.35
2023-06-08T16:22:17.634Z,3.88
2023-06-08T16:24:44.300Z,4.03
2023-06-08T16:27:11.063Z,3.50
2023-06-08T16:29:37.844Z,3.83
2023-06-08T16:32:04.979Z,3.95
2023-06-08T16:34:31.673Z,3.72
2023-06-08T16:36:58.631Z,3.47
2023-06-08T16:39:25.232Z,3.75
2023-06-08T16:41:51.857Z,4.70
2023-06-08T16:44:18.642Z,4.65
2023-06-08T16:46:45.896Z,4.53
2023-06-08T16:49:12.604Z,3.63
2023-06-08T16:51:39.273Z,6.82
2023-06-08T16:54:06.761Z,3.88
2023-06-08T16:56:34.146Z,10.18
2023-06-08T16:59:01.349Z,8.40
2023-06-08T17:01:28.380Z,4.00
2023-06-08T17:03:55.094Z,3.85
2023-06-08T17:06:21.760Z,4.15
2023-06-08T17:08:48.394Z,5.75
2023-06-08T17:11:15.234Z,7.07
2023-06-08T17:13:43.056Z,8.68
2023-06-08T17:16:09.909Z,5.63
2023-06-08T17:18:36.640Z,3.75
2023-06-08T17:21:03.683Z,3.80
2023-06-08T17:23:30.318Z,7.30
2023-06-08T17:25:56.941Z,3.92
2023-06-08T17:28:23.534Z,5.43
2023-06-08T17:30:50.402Z,4.85
2023-06-08T17:33:17.289Z,4.40
2023-06-08T17:35:43.961Z,4.30
2023-06-08T17:38:10.752Z,4.60
2023-06-08T17:40:37.627Z,5.30
2023-06-08T17:43:04.229Z,4.30
2023-06-08T17:45:30.925Z,8.25
2023-06-08T17:47:58.490Z,4.10
2023-06-08T17:50:25.326Z,5.15
2023-06-08T17:53:02.507Z,4.07
2023-06-08T17:55:29.444Z,3.92
2023-06-08T17:57:57.678Z,4.55
2023-06-08T18:00:24.826Z,3.83
2023-06-08T18:02:51.921Z,3.33
2023-06-08T18:05:19.488Z,10.48
2023-06-08T18:07:46.276Z,3.78
2023-06-08T18:10:14.532Z,5.82
2023-06-08T18:12:41.803Z,4.28
2023-06-08T18:15:09.233Z,3.97
2023-06-08T18:17:36.354Z,4.03
2023-06-08T18:20:06.285Z,4.18
2023-06-08T18:22:33.686Z,3.35
2023-06-08T18:25:01.723Z,6.35
2023-06-08T18:27:28.474Z,4.03
2023-06-08T18:29:55.141Z,4.00
2023-06-08T18:32:21.833Z,3.60
2023-06-08T18:34:48.542Z,6.10
2023-06-08T18:37:16.855Z,9.10
2023-06-08T18:39:56.924Z,3.72
2023-06-08T18:42:25.870Z,3.40
2023-06-08T18:44:52.599Z,5.55
2023-06-08T18:47:19.309Z,3.50
2023-06-08T18:49:45.955Z,4.15
2023-06-08T18:52:12.581Z,4.15
2023-06-08T18:54:39.534Z,3.60
2023-06-08T18:57:06.714Z,5.15
2023-06-08T18:59:33.382Z,4.00
2023-06-08T19:01:59.988Z,3.92
2023-06-08T19:04:27.006Z,3.70
2023-06-08T19:06:53.621Z,6.85
2023-06-08T19:09:22.052Z,5.00
2023-06-08T19:11:48.875Z,3.28
2023-06-08T19:14:15.996Z,4.20
2023-06-08T19:16:44.622Z,5.20
2023-06-08T19:19:11.481Z,3.72
2023-06-08T19:21:38.392Z,4.45
2023-06-08T19:24:07.026Z,3.67
2023-06-08T19:26:34.251Z,3.65
2023-06-08T19:29:01.822Z,5.65
2023-06-08T19:31:29.219Z,3.25
2023-06-08T19:33:56.572Z,3.40
2023-06-08T19:36:24.200Z,3.78
2023-06-08T19:38:52.285Z,4.07
2023-06-08T19:41:19.076Z,4.55
2023-06-08T19:43:45.859Z,5.75
2023-06-08T19:46:12.667Z,4.10
2023-06-08T19:48:39.576Z,3.60
2023-06-08T19:51:06.222Z,4.20
2023-06-08T19:53:32.980Z,4.65
2023-06-08T19:55:59.669Z,4.78
2023-06-08T19:58:26.352Z,4.35
2023-06-08T20:00:53.072Z,3.50
2023-06-08T20:03:19.826Z,5.18
2023-06-08T20:05:46.569Z,3.53
2023-06-08T20:08:13.413Z,4.35
2023-06-08T20:10:40.161Z,3.38
2023-06-08T20:13:07.683Z,3.63
2023-06-08T20:15:35.840Z,3.50
2023-06-08T20:18:04.135Z,4.40
2023-06-08T20:20:30.967Z,4.43
2023-06-08T20:22:58.289Z,7.78
2023-06-08T20:25:26.833Z,5.45
2023-06-08T20:27:54.307Z,5.95
2023-06-08T20:30:20.929Z,3.50
2023-06-08T20:32:48.316Z,3.58
2023-06-08T20:35:15.784Z,5.57
2023-06-08T20:37:42.508Z,3.55
2023-06-08T20:40:09.540Z,4.30
2023-06-08T20:42:36.166Z,3.92
2023-06-08T20:45:02.904Z,7.57
2023-06-08T20:47:31.398Z,3.50
2023-06-08T20:50:00.131Z,3.58
2023-06-08T20:52:27.495Z,4.20
2023-06-08T20:54:54.658Z,3.70
2023-06-08T20:57:21.596Z,3.40
2023-06-08T20:59:48.973Z,4.90
2023-06-08T21:02:15.848Z,3.83
2023-06-08T21:04:42.734Z,4.57
2023-06-08T21:07:09.665Z,3.13
2023-06-08T21:09:36.277Z,3.65
2023-06-08T21:12:03.741Z,7.38
2023-06-08T21:14:30.411Z,3.40
2023-06-08T21:16:57.270Z,3.40
2023-06-08T21:19:24.633Z,3.25
2023-06-08T21:21:52.487Z,3.60
2023-06-08T21:24:19.443Z,3.90
2023-06-08T21:26:46.246Z,5.75
2023-06-08T21:29:13.024Z,3.80
2023-06-08T21:31:39.843Z,3.15
2023-06-08T21:34:06.585Z,7.57
2023-06-08T21:36:33.234Z,4.25
2023-06-08T21:38:59.913Z,4.72
2023-06-08T21:41:27.101Z,3.70
2023-06-08T21:43:53.794Z,3.30
2023-06-08T21:46:20.452Z,3.58
2023-06-08T21:48:47.234Z,3.42
2023-06-08T21:51:14.093Z,3.40
2023-06-08T21:53:40.737Z,4.53
2023-06-08T21:56:07.456Z,5.38
2023-06-08T21:58:34.141Z,3.53
2023-06-08T22:01:01.001Z,3.80
2023-06-08T22:03:27.942Z,3.42
2023-06-08T22:05:54.758Z,3.72
2023-06-08T22:08:21.532Z,3.70
2023-06-08T22:10:48.172Z,3.72
2023-06-08T22:13:15.050Z,6.20
2023-06-08T22:15:41.837Z,3.50
2023-06-08T22:18:09.804Z,3.50
2023-06-08T22:20:37.483Z,3.55
2023-06-08T22:23:06.464Z,3.42
2023-06-08T22:25:36.555Z,4.07
2023-06-08T22:28:06.353Z,3.90
2023-06-08T22:30:33.083Z,3.83
2023-06-08T22:32:59.779Z,3.75
2023-06-08T22:35:26.519Z,5.28
2023-06-08T22:37:53.126Z,3.50
2023-06-08T22:40:19.741Z,7.38
2023-06-08T22:42:46.318Z,3.50
2023-06-08T22:45:12.929Z,3.22
2023-06-08T22:47:42.415Z,3.22
2023-06-08T22:50:09.568Z,3.33
2023-06-08T22:52:36.237Z,4.15
2023-06-08T22:55:03.479Z,7.43
2023-06-08T22:57:30.329Z,8.10
2023-06-08T22:59:57.216Z,12.02
2023-06-08T23:02:23.973Z,4.07
2023-06-08T23:04:50.676Z,3.55
2023-06-08T23:07:17.944Z,3.17
2023-06-08T23:09:49.679Z,3.70
2023-06-08T23:12:17.540Z,3.67
2023-06-08T23:14:50.028Z,3.55
2023-06-08T23:17:19.706Z,3.60
2023-06-08T23:19:49.160Z,10.50
2023-06-08T23:22:20.802Z,3.80
2023-06-08T23:24:48.477Z,4.00
2023-06-08T23:27:15.948Z,5.88
2023-06-08T23:29:48.246Z,6.85
2023-06-08T23:32:19.594Z,3.47
2023-06-08T23:34:50.578Z,5.38
2023-06-08T23:37:19.304Z,3.45
2023-06-08T23:39:49.821Z,3.30
2023-06-08T23:42:18.180Z,3.55
2023-06-08T23:44:44.924Z,3.10
2023-06-08T23:47:14.166Z,4.00
2023-06-08T23:49:41.322Z,5.45
2023-06-08T23:52:08.533Z,3.70
2023-06-08T23:54:35.221Z,3.13
2023-06-08T23:57:01.842Z,3.50
2023-06-08T23:59:28.474Z,4.30
